createdAt,value
2022-11-12T00:01:03.396Z,0
2022-11-12T00:02:43.222Z,0
2022-11-12T00:04:22.955Z,0
2022-11-12T00:06:02.686Z,0
2022-11-12T00:07:42.457Z,0
2022-11-12T00:09:22.219Z,0
2022-11-12T00:11:02.024Z,0
2022-11-12T00:12:41.795Z,0
2022-11-12T00:14:21.489Z,0
2022-11-12T00:16:01.274Z,0
2022-11-12T00:17:41.022Z,0
2022-11-12T00:19:20.782Z,0
2022-11-12T00:21:00.564Z,0
2022-11-12T00:22:40.326Z,0
2022-11-12T00:24:20.099Z,0
2022-11-12T00:25:59.850Z,0
2022-11-12T00:27:39.668Z,0
2022-11-12T00:29:19.371Z,0
2022-11-12T00:30:59.152Z,0
2022-11-12T00:32:38.904Z,0
2022-11-12T00:35:58.428Z,0
2022-11-12T00:37:38.194Z,0
2022-11-12T00:39:17.958Z,0
2022-11-12T00:40:57.756Z,0
2022-11-12T00:42:37.491Z,0
2022-11-12T00:44:17.267Z,0
2022-11-12T00:45:57.089Z,0
2022-11-12T00:47:36.786Z,0
2022-11-12T00:49:16.556Z,0
2022-11-12T00:50:56.312Z,0
2022-11-12T00:52:36.112Z,0
2022-11-12T00:54:15.909Z,0
2022-11-12T00:55:55.595Z,0
2022-11-12T00:57:35.420Z,0
2022-11-12T00:59:15.181Z,0
2022-11-12T01:00:54.896Z,0
2022-11-12T01:02:34.697Z,0
2022-11-12T01:04:14.444Z,0
2022-11-12T01:05:54.249Z,0
2022-11-12T01:07:33.978Z,0
2022-11-12T01:09:13.756Z,0
2022-11-12T01:10:53.536Z,0
2022-11-12T01:12:33.241Z,0
2022-11-12T01:14:13.021Z,0
2022-11-12T01:15:52.805Z,0
2022-11-12T01:17:32.532Z,0
2022-11-12T01:19:12.313Z,0
2022-11-12T01:20:52.071Z,0
2022-11-12T01:22:31.828Z,0
2022-11-12T01:24:11.607Z,0
2022-11-12T01:25:51.377Z,0
2022-11-12T01:27:31.190Z,0
2022-11-12T01:29:10.962Z,0
2022-11-12T01:30:50.651Z,0
2022-11-12T01:32:30.416Z,0
2022-11-12T01:34:10.183Z,0
2022-11-12T01:35:49.951Z,0
2022-11-12T01:37:29.798Z,0
2022-11-12T01:39:09.565Z,0
2022-11-12T01:40:49.255Z,0
2022-11-12T01:42:29.015Z,0
2022-11-12T01:44:08.768Z,0
2022-11-12T01:45:48.531Z,0
2022-11-12T01:49:08.064Z,0
2022-11-12T01:50:47.827Z,0
2022-11-12T01:52:27.593Z,0
2022-11-12T01:54:07.381Z,0
2022-11-12T01:55:47.119Z,0
2022-11-12T01:57:26.876Z,0
2022-11-12T01:59:06.645Z,0
2022-11-12T02:00:46.407Z,0
2022-11-12T02:02:26.173Z,0
2022-11-12T02:04:05.945Z,0
2022-11-12T02:05:45.709Z,0
2022-11-12T02:07:25.478Z,0
2022-11-12T02:09:05.238Z,0
2022-11-12T02:10:45.004Z,0
2022-11-12T02:12:24.756Z,0
2022-11-12T02:14:04.527Z,0
2022-11-12T02:15:44.300Z,0
2022-11-12T02:17:24.062Z,0
2022-11-12T02:19:03.843Z,0
2022-11-12T02:20:43.672Z,0
2022-11-12T02:22:23.348Z,0
2022-11-12T02:24:03.116Z,0
2022-11-12T02:25:42.872Z,0
2022-11-12T02:27:22.636Z,0
2022-11-12T02:29:02.399Z,0
2022-11-12T02:30:42.309Z,0
2022-11-12T02:32:21.930Z,0
2022-11-12T02:34:01.705Z,0
2022-11-12T02:35:41.523Z,0
2022-11-12T02:37:21.228Z,0
2022-11-12T02:39:01.019Z,0
2022-11-12T02:40:40.764Z,0
2022-11-12T02:42:20.519Z,0
2022-11-12T02:44:00.333Z,0
2022-11-12T02:45:40.067Z,0
2022-11-12T02:47:19.807Z,0
2022-11-12T02:48:59.577Z,0
2022-11-12T02:50:39.338Z,0
2022-11-12T02:52:19.118Z,0
2022-11-12T02:53:58.866Z,0
2022-11-12T02:55:38.630Z,0
2022-11-12T02:57:18.503Z,0
2022-11-12T02:58:58.163Z,0
2022-11-12T03:00:37.936Z,0
2022-11-12T03:02:17.705Z,0
2022-11-12T03:03:57.460Z,0
2022-11-12T03:05:37.221Z,0
2022-11-12T03:07:17.041Z,0
2022-11-12T03:08:56.752Z,0
2022-11-12T03:10:36.506Z,0
2022-11-12T03:12:16.334Z,0
2022-11-12T03:13:56.099Z,0
2022-11-12T03:15:35.810Z,0
2022-11-12T03:17:15.597Z,0
2022-11-12T03:18:55.339Z,0
2022-11-12T03:20:35.094Z,0
2022-11-12T03:22:14.861Z,0
2022-11-12T03:23:54.622Z,0
2022-11-12T03:25:34.402Z,0
2022-11-12T03:27:14.155Z,0
2022-11-12T03:28:53.973Z,0
2022-11-12T03:30:33.693Z,0
2022-11-12T03:32:13.503Z,0
2022-11-12T03:33:53.209Z,0
2022-11-12T03:35:32.982Z,0
2022-11-12T03:37:12.733Z,0
2022-11-12T03:38:52.486Z,0
2022-11-12T03:40:32.276Z,0
2022-11-12T03:42:12.037Z,0
2022-11-12T03:43:51.799Z,0
2022-11-12T03:45:31.602Z,0
2022-11-12T03:47:11.319Z,0
2022-11-12T03:48:51.095Z,0
2022-11-12T03:50:30.855Z,0
2022-11-12T03:52:10.628Z,0
2022-11-12T03:53:50.396Z,0
2022-11-12T03:55:30.136Z,0
2022-11-12T03:57:09.911Z,0
2022-11-12T03:58:49.667Z,0
2022-11-12T04:00:29.446Z,0
2022-11-12T04:02:09.207Z,0
2022-11-12T04:03:48.973Z,0
2022-11-12T04:05:28.728Z,0
2022-11-12T04:07:08.526Z,0
2022-11-12T04:08:48.251Z,0
2022-11-12T04:10:28.018Z,0
2022-11-12T04:12:07.785Z,0
2022-11-12T04:13:47.555Z,0
2022-11-12T04:15:27.311Z,0
2022-11-12T04:17:07.076Z,0
2022-11-12T04:18:46.848Z,0
2022-11-12T04:20:26.613Z,0
2022-11-12T04:22:06.367Z,0
2022-11-12T04:23:46.140Z,0
2022-11-12T04:25:25.894Z,0
2022-11-12T04:27:05.669Z,0
2022-11-12T04:28:45.443Z,0
2022-11-12T04:30:25.198Z,0
2022-11-12T04:32:04.967Z,0
2022-11-12T04:33:44.737Z,0
2022-11-12T04:35:24.522Z,0
2022-11-12T04:37:04.253Z,0
2022-11-12T04:38:44.008Z,0
2022-11-12T04:40:23.785Z,0
2022-11-12T04:42:03.546Z,0
2022-11-12T04:43:43.311Z,0
2022-11-12T04:45:23.079Z,0
2022-11-12T04:47:02.837Z,0
2022-11-12T04:48:42.609Z,0
2022-11-12T04:50:22.372Z,0
2022-11-12T04:52:02.135Z,0
2022-11-12T04:53:41.897Z,0
2022-11-12T04:55:21.668Z,0
2022-11-12T04:57:01.430Z,0
2022-11-12T04:58:41.212Z,0
2022-11-12T05:00:20.973Z,0
2022-11-12T05:02:00.752Z,0
2022-11-12T05:03:40.516Z,0
2022-11-12T05:05:20.273Z,0
2022-11-12T05:07:00.063Z,0
2022-11-12T05:08:39.808Z,0
2022-11-12T05:11:59.355Z,0
2022-11-12T05:13:39.111Z,0
2022-11-12T05:15:18.881Z,0
2022-11-12T05:16:58.648Z,0
2022-11-12T05:18:38.413Z,0
2022-11-12T05:20:18.179Z,0
2022-11-12T05:21:58.032Z,0
2022-11-12T05:23:37.709Z,0
2022-11-12T05:25:17.485Z,0
2022-11-12T05:26:57.247Z,0
2022-11-12T05:28:37.014Z,0
2022-11-12T05:30:16.843Z,0
2022-11-12T05:31:56.543Z,0
2022-11-12T05:33:36.332Z,0
2022-11-12T05:35:16.137Z,0
2022-11-12T05:36:55.904Z,0
2022-11-12T05:38:35.623Z,0
2022-11-12T05:40:15.384Z,0
2022-11-12T05:41:55.149Z,0
2022-11-12T05:43:34.956Z,0
2022-11-12T05:45:14.761Z,0
2022-11-12T05:46:54.478Z,0
2022-11-12T05:48:34.257Z,0
2022-11-12T05:50:14.004Z,0
2022-11-12T05:51:53.747Z,0
2022-11-12T05:53:33.507Z,0
2022-11-12T05:55:13.290Z,0
2022-11-12T05:56:53.084Z,0
2022-11-12T05:58:32.821Z,0
2022-11-12T06:00:12.615Z,0
2022-11-12T06:01:52.363Z,0
2022-11-12T06:03:32.112Z,0
2022-11-12T06:05:11.891Z,0
2022-11-12T06:06:51.683Z,0
2022-11-12T06:08:31.431Z,0
2022-11-12T06:10:11.203Z,0
2022-11-12T06:11:50.944Z,0
2022-11-12T06:13:30.776Z,0
2022-11-12T06:15:10.496Z,2.3
2022-11-12T06:16:50.279Z,0
2022-11-12T06:18:30.031Z,0
2022-11-12T06:20:09.805Z,0
2022-11-12T06:21:49.557Z,0
2022-11-12T06:23:29.310Z,0
2022-11-12T06:25:09.107Z,0
2022-11-12T06:26:48.856Z,0
2022-11-12T06:28:28.634Z,0.25
2022-11-12T06:30:08.394Z,0
2022-11-12T06:31:48.157Z,0.51
2022-11-12T06:33:27.940Z,1.28
2022-11-12T06:35:07.692Z,0.76
2022-11-12T06:36:47.482Z,2.05
2022-11-12T06:38:27.244Z,1.79
2022-11-12T06:41:46.820Z,1.54
2022-11-12T06:43:26.537Z,2.05
2022-11-12T06:45:06.299Z,2.05
2022-11-12T06:46:46.065Z,2.83
2022-11-12T06:50:05.638Z,3.86
2022-11-12T06:51:45.443Z,3.08
2022-11-12T06:53:25.149Z,3.6
2022-11-12T06:55:04.912Z,4.12
2022-11-12T06:56:44.676Z,4.38
2022-11-12T06:58:24.449Z,6.72
2022-11-12T07:00:04.215Z,5.94
2022-11-12T07:01:44.032Z,5.43
2022-11-12T07:03:23.761Z,5.43
2022-11-12T07:05:03.524Z,5.92
2022-11-12T07:06:43.316Z,6.21
2022-11-12T07:08:23.084Z,6.22
2022-11-12T07:10:02.830Z,7.26
2022-11-12T07:11:42.612Z,6.74
2022-11-12T07:13:22.375Z,7.27
2022-11-12T07:15:02.258Z,7.54
2022-11-12T07:16:41.927Z,8.32
2022-11-12T07:18:21.696Z,8.59
2022-11-12T07:20:01.518Z,9.39
2022-11-12T07:21:41.235Z,9.14
2022-11-12T07:23:21.123Z,9.93
2022-11-12T07:26:40.580Z,11.27
2022-11-12T07:28:20.316Z,10.75
2022-11-12T07:30:00.086Z,11.03
2022-11-12T07:31:39.862Z,10.52
2022-11-12T07:33:19.629Z,11.06
2022-11-12T07:34:59.391Z,10.81
2022-11-12T07:36:39.159Z,11.08
2022-11-12T07:38:18.947Z,10.83
2022-11-12T07:39:58.698Z,11.63
2022-11-12T07:41:38.479Z,15.65
2022-11-12T07:43:18.244Z,15.68
2022-11-12T07:44:58.018Z,15.17
2022-11-12T07:46:37.779Z,14.66
2022-11-12T07:48:17.569Z,14.41
2022-11-12T07:49:57.341Z,14.7
2022-11-12T07:51:37.097Z,15.53
2022-11-12T07:53:16.865Z,17.45
2022-11-12T07:54:56.632Z,16.68
2022-11-12T07:58:16.159Z,17
2022-11-12T07:59:55.941Z,41.1
2022-11-12T08:01:35.732Z,49.02
2022-11-12T08:03:15.594Z,56
2022-11-12T08:04:55.264Z,60.4
2022-11-12T08:06:35.023Z,66.1
2022-11-12T08:08:14.792Z,69.96
2022-11-12T08:09:54.572Z,64.62
2022-11-12T08:11:34.416Z,65.82
2022-11-12T08:13:14.112Z,62.58
2022-11-12T08:14:53.884Z,60.24
2022-11-12T08:16:33.689Z,57.85
2022-11-12T08:18:13.420Z,55.4
2022-11-12T08:19:53.179Z,55.1
2022-11-12T08:21:33.017Z,53.39
2022-11-12T08:23:12.737Z,50.7
2022-11-12T08:24:52.504Z,52.51
2022-11-12T08:26:32.296Z,52.47
2022-11-12T08:28:12.045Z,50.98
2022-11-12T08:29:51.817Z,50.68
2022-11-12T08:31:31.573Z,50.41
2022-11-12T08:33:11.352Z,50.42
2022-11-12T08:34:51.185Z,49.52
2022-11-12T08:36:30.930Z,48.62
2022-11-12T08:38:10.689Z,48.36
2022-11-12T08:39:50.432Z,47.13
2022-11-12T08:41:30.207Z,48.6
2022-11-12T08:43:09.973Z,47.15
2022-11-12T08:44:49.741Z,47.77
2022-11-12T08:46:29.607Z,46.84
2022-11-12T08:48:09.283Z,46.23
2022-11-12T08:49:49.049Z,45.38
2022-11-12T08:51:28.883Z,46.53
2022-11-12T08:53:08.608Z,45.05
2022-11-12T08:54:48.357Z,45.08
2022-11-12T08:56:28.129Z,45.35
2022-11-12T08:58:07.902Z,44.17
2022-11-12T08:59:47.677Z,44.48
2022-11-12T09:01:27.445Z,44.77
2022-11-12T09:03:07.250Z,43.89
2022-11-12T09:04:46.993Z,43.57
2022-11-12T09:06:26.763Z,43.3
2022-11-12T09:08:06.524Z,42.71
2022-11-12T09:09:46.289Z,42.98
2022-11-12T09:11:26.062Z,43.29
2022-11-12T09:13:05.848Z,42.4
2022-11-12T09:14:45.639Z,42.8
2022-11-12T09:16:25.386Z,41.81
2022-11-12T09:18:05.159Z,41.21
2022-11-12T09:19:44.956Z,41.51
2022-11-12T09:21:24.683Z,40.91
2022-11-12T09:23:04.460Z,40.91
2022-11-12T09:24:44.248Z,40.31
2022-11-12T09:26:24.009Z,40.59
2022-11-12T09:28:03.770Z,39.12
2022-11-12T09:29:43.553Z,40.02
2022-11-12T09:31:23.324Z,40.33
2022-11-12T09:33:03.080Z,40.03
2022-11-12T09:34:42.856Z,38.5
2022-11-12T09:36:22.638Z,38.84
2022-11-12T09:38:02.381Z,39.4
2022-11-12T09:39:42.168Z,38.82
2022-11-12T09:41:21.934Z,38.25
2022-11-12T09:43:01.705Z,40.02
2022-11-12T09:44:41.470Z,37.65
2022-11-12T09:46:21.258Z,39.73
2022-11-12T09:48:01.027Z,37.66
2022-11-12T09:49:40.789Z,39.41
2022-11-12T09:51:20.580Z,36.46
2022-11-12T09:54:40.105Z,38.52
2022-11-12T09:56:19.861Z,39.08
2022-11-12T09:57:59.638Z,38.23
2022-11-12T09:59:39.417Z,38.5
2022-11-12T10:01:19.187Z,36.43
2022-11-12T10:02:58.945Z,34.97
2022-11-12T10:04:38.728Z,37.91
2022-11-12T10:06:18.531Z,35.84
2022-11-12T10:07:58.263Z,35.25
2022-11-12T10:11:17.794Z,34.09
2022-11-12T10:12:57.572Z,37.31
2022-11-12T10:14:37.338Z,34.4
2022-11-12T10:16:17.105Z,37.04
2022-11-12T10:17:56.886Z,34.08
2022-11-12T10:19:36.704Z,36.75
2022-11-12T10:21:16.421Z,36.73
2022-11-12T10:22:56.224Z,36.09
2022-11-12T10:24:35.980Z,33.48
2022-11-12T10:26:15.734Z,32.3
2022-11-12T10:27:55.507Z,32.29
2022-11-12T10:29:35.270Z,33.77
2022-11-12T10:31:15.052Z,32.59
2022-11-12T10:32:54.825Z,35.98
2022-11-12T10:34:34.580Z,31.44
2022-11-12T10:36:14.353Z,32.3
2022-11-12T10:37:54.130Z,35.52
2022-11-12T10:39:33.891Z,34.04
2022-11-12T10:41:13.663Z,33.75
2022-11-12T10:42:53.436Z,35.24
2022-11-12T10:44:33.211Z,32.88
2022-11-12T10:46:12.966Z,33.16
2022-11-12T10:47:52.740Z,34.34
2022-11-12T10:49:32.530Z,33.15
2022-11-12T10:51:12.304Z,35.23
2022-11-12T10:52:52.055Z,35.5
2022-11-12T10:54:31.822Z,35.22
2022-11-12T10:56:11.619Z,34.91
2022-11-12T10:57:51.358Z,30.49
2022-11-12T10:59:31.134Z,32.56
2022-11-12T11:01:10.908Z,35.81
2022-11-12T11:02:50.687Z,28.45
2022-11-12T11:04:30.452Z,32.25
2022-11-12T11:06:10.210Z,33.72
2022-11-12T11:07:49.989Z,33.75
2022-11-12T11:09:29.753Z,28.44
2022-11-12T11:11:09.524Z,1.12
2022-11-12T11:14:29.073Z,0
2022-11-12T11:16:08.881Z,0
2022-11-12T11:17:48.602Z,0.27
2022-11-12T11:19:28.379Z,0
2022-11-12T11:21:08.134Z,0
2022-11-12T11:22:47.924Z,5.22
2022-11-12T11:24:27.717Z,8.75
2022-11-12T11:26:07.469Z,9.35
2022-11-12T11:27:47.228Z,7.69
2022-11-12T11:29:26.987Z,9.62
2022-11-12T11:31:06.767Z,8.79
2022-11-12T11:32:46.592Z,7.69
2022-11-12T11:34:26.304Z,10.99
2022-11-12T11:36:06.070Z,9.6
2022-11-12T11:37:45.840Z,7.96
2022-11-12T11:39:25.614Z,8.79
2022-11-12T11:41:05.403Z,8.79
2022-11-12T11:42:45.184Z,5.77
2022-11-12T11:44:24.925Z,10.7
2022-11-12T11:46:04.740Z,6.31
2022-11-12T11:47:44.462Z,7.14
2022-11-12T11:49:24.299Z,9.06
2022-11-12T11:51:03.995Z,6.59
2022-11-12T11:52:43.784Z,9.06
2022-11-12T11:54:23.563Z,8.78
2022-11-12T11:56:03.320Z,8.51
2022-11-12T11:57:43.090Z,8.51
2022-11-12T11:59:22.873Z,10.43
2022-11-12T12:01:02.639Z,9.88
2022-11-12T12:02:42.400Z,9.06
2022-11-12T12:04:22.161Z,6.86
2022-11-12T12:06:01.931Z,8.51
2022-11-12T12:07:41.717Z,8.22
2022-11-12T12:09:21.485Z,7.68
2022-11-12T12:11:01.248Z,9.33
2022-11-12T12:12:41.009Z,8.78
2022-11-12T12:14:20.784Z,7.96
2022-11-12T12:16:00.572Z,7.95
2022-11-12T12:17:40.355Z,8.78
2022-11-12T12:19:20.113Z,8.5
2022-11-12T12:20:59.862Z,8.78
2022-11-12T12:22:39.645Z,7.95
2022-11-12T12:24:19.414Z,8.22
2022-11-12T12:25:59.192Z,7.95
2022-11-12T12:27:38.936Z,7.95
2022-11-12T12:29:18.742Z,7.95
2022-11-12T12:30:58.524Z,7.67
2022-11-12T12:32:38.270Z,7.67
2022-11-12T12:34:18.030Z,7.67
2022-11-12T12:35:57.832Z,8.22
2022-11-12T12:37:37.578Z,7.94
2022-11-12T12:39:17.438Z,8.22
2022-11-12T12:40:57.215Z,7.4
2022-11-12T12:42:36.895Z,6.82
2022-11-12T12:44:16.652Z,7.67
2022-11-12T12:45:56.430Z,7.12
2022-11-12T12:47:36.217Z,6.84
2022-11-12T12:50:55.728Z,7.94
2022-11-12T12:52:35.509Z,7.94
2022-11-12T12:54:15.267Z,7.94
2022-11-12T12:55:55.122Z,8.21
2022-11-12T12:57:34.826Z,8.76
2022-11-12T13:00:54.421Z,7.94
2022-11-12T13:02:34.130Z,7.39
2022-11-12T13:04:13.902Z,6.56
2022-11-12T13:05:53.691Z,7.93
2022-11-12T13:07:33.426Z,7.66
2022-11-12T13:09:13.260Z,6.84
2022-11-12T13:10:53.060Z,7.38
2022-11-12T13:12:32.748Z,6.84
2022-11-12T13:14:12.514Z,6.29
2022-11-12T13:15:52.291Z,7.11
2022-11-12T13:17:32.069Z,6.56
2022-11-12T13:20:51.608Z,7.93
2022-11-12T13:22:31.373Z,7.1
2022-11-12T13:24:11.142Z,7.65
2022-11-12T13:25:50.934Z,7.65
2022-11-12T13:27:30.677Z,7.65
2022-11-12T13:29:10.446Z,7.11
2022-11-12T13:30:50.222Z,6.28
2022-11-12T13:32:30.002Z,6.56
2022-11-12T13:34:09.771Z,6.55
2022-11-12T13:35:49.531Z,7.37
2022-11-12T13:37:29.311Z,7.37
2022-11-12T13:39:09.089Z,7.1
2022-11-12T13:40:48.846Z,7.38
2022-11-12T13:42:28.614Z,6.55
2022-11-12T13:44:08.383Z,7.1
2022-11-12T13:45:48.177Z,7.1
2022-11-12T13:47:27.919Z,7.65
2022-11-12T13:49:07.692Z,7.1
2022-11-12T13:50:47.483Z,7.1
2022-11-12T13:52:27.244Z,6.55
2022-11-12T13:54:07.019Z,6.83
2022-11-12T13:55:46.773Z,7.1
2022-11-12T13:57:26.553Z,6.55
2022-11-12T13:59:06.330Z,7.1
2022-11-12T14:00:46.098Z,4.89
2022-11-12T14:02:25.868Z,6.55
2022-11-12T14:04:05.629Z,6.83
2022-11-12T14:05:45.414Z,6.28
2022-11-12T14:07:25.178Z,6.55
2022-11-12T14:09:04.939Z,6.55
2022-11-12T14:10:44.711Z,6.83
2022-11-12T14:12:24.480Z,6.83
2022-11-12T14:14:04.257Z,6.82
2022-11-12T14:15:44.087Z,6
2022-11-12T14:17:23.794Z,6.55
2022-11-12T14:19:03.568Z,6.55
2022-11-12T14:20:43.367Z,6.82
2022-11-12T14:22:23.099Z,6.55
2022-11-12T14:24:02.865Z,6.82
2022-11-12T14:25:42.643Z,6.82
2022-11-12T14:27:22.538Z,6.82
2022-11-12T14:29:02.180Z,5.73
2022-11-12T14:30:41.956Z,6.55
2022-11-12T14:32:21.737Z,6.82
2022-11-12T14:34:01.621Z,6.28
2022-11-12T14:35:41.267Z,6
2022-11-12T14:37:21.043Z,6.82
2022-11-12T14:39:00.811Z,6.82
2022-11-12T14:40:40.591Z,6.54
2022-11-12T14:42:20.350Z,6.55
2022-11-12T14:44:00.135Z,5.73
2022-11-12T14:45:39.901Z,6.54
2022-11-12T14:47:19.723Z,6.54
2022-11-12T14:48:59.438Z,6.54
2022-11-12T14:50:39.212Z,6.54
2022-11-12T14:52:18.975Z,6.26
2022-11-12T14:53:58.760Z,6
2022-11-12T14:55:38.535Z,4.36
2022-11-12T14:57:18.310Z,3.26
2022-11-12T14:58:58.061Z,2.71
2022-11-12T15:00:37.825Z,1.35
2022-11-12T15:02:17.603Z,1.62
2022-11-12T15:03:57.363Z,0.81
2022-11-12T15:05:37.134Z,0.81
2022-11-12T15:07:16.953Z,0
2022-11-12T15:08:56.675Z,0
2022-11-12T15:10:36.432Z,0
2022-11-12T15:12:16.218Z,0
2022-11-12T15:13:55.973Z,0
2022-11-12T15:15:35.738Z,0
2022-11-12T15:17:15.518Z,0
2022-11-12T15:20:35.056Z,0
2022-11-12T15:22:14.875Z,0
2022-11-12T15:23:54.598Z,0
2022-11-12T15:25:34.397Z,0
2022-11-12T15:27:14.109Z,0
2022-11-12T15:28:53.882Z,0
2022-11-12T15:30:33.668Z,0
2022-11-12T15:32:13.415Z,0
2022-11-12T15:33:53.210Z,0
2022-11-12T15:35:32.947Z,0
2022-11-12T15:37:12.719Z,0
2022-11-12T15:38:52.501Z,0
2022-11-12T15:40:32.235Z,0
2022-11-12T15:42:12.027Z,0
2022-11-12T15:43:51.788Z,0
2022-11-12T15:45:31.552Z,0
2022-11-12T15:47:11.330Z,0
2022-11-12T15:48:51.092Z,0
2022-11-12T15:50:30.959Z,0
2022-11-12T15:52:10.657Z,0
2022-11-12T15:53:50.412Z,0
2022-11-12T15:55:30.155Z,0
2022-11-12T15:57:09.932Z,0
2022-11-12T15:58:49.693Z,0
2022-11-12T16:00:29.458Z,0
2022-11-12T16:02:09.236Z,0
2022-11-12T16:03:48.992Z,0
2022-11-12T16:05:28.759Z,0
2022-11-12T16:07:08.540Z,0
2022-11-12T16:08:48.302Z,0
2022-11-12T16:10:28.061Z,0
2022-11-12T16:12:07.830Z,0
2022-11-12T16:13:47.597Z,0
2022-11-12T16:15:27.364Z,0
2022-11-12T16:17:07.140Z,0
2022-11-12T16:18:46.903Z,0
2022-11-12T16:20:26.682Z,0
2022-11-12T16:22:06.440Z,0
2022-11-12T16:23:46.215Z,0
2022-11-12T16:25:25.965Z,0
2022-11-12T16:27:05.765Z,0
2022-11-12T16:28:45.495Z,0
2022-11-12T16:30:25.280Z,0
2022-11-12T16:33:44.820Z,0
2022-11-12T16:35:24.568Z,0
2022-11-12T16:37:04.333Z,0
2022-11-12T16:38:44.120Z,0
2022-11-12T16:40:23.882Z,0
2022-11-12T16:42:03.686Z,0
2022-11-12T16:43:43.415Z,0
2022-11-12T16:45:23.229Z,0
2022-11-12T16:47:02.941Z,0
2022-11-12T16:48:42.718Z,0
2022-11-12T16:50:22.472Z,0
2022-11-12T16:52:02.256Z,0
2022-11-12T16:53:42.047Z,0
2022-11-12T16:55:21.789Z,0
2022-11-12T16:57:01.674Z,0
2022-11-12T16:58:41.316Z,0
2022-11-12T17:00:21.101Z,0
2022-11-12T17:02:00.927Z,0
2022-11-12T17:03:40.625Z,0
2022-11-12T17:05:20.398Z,0
2022-11-12T17:07:00.216Z,0
2022-11-12T17:08:39.933Z,0
2022-11-12T17:10:19.688Z,0
2022-11-12T17:11:59.460Z,0
2022-11-12T17:13:39.236Z,0
2022-11-12T17:15:19.060Z,0
2022-11-12T17:16:58.758Z,0
2022-11-12T17:18:38.537Z,0
2022-11-12T17:20:18.289Z,0
2022-11-12T17:21:58.117Z,0
2022-11-12T17:23:37.824Z,0
2022-11-12T17:25:17.597Z,0
2022-11-12T17:26:57.361Z,0
2022-11-12T17:28:37.142Z,0
2022-11-12T17:30:16.897Z,0
2022-11-12T17:31:56.678Z,0
2022-11-12T17:33:36.431Z,0
2022-11-12T17:35:16.218Z,0
2022-11-12T17:36:55.985Z,0
2022-11-12T17:38:35.771Z,0
2022-11-12T17:40:15.519Z,0
2022-11-12T17:41:55.274Z,0
2022-11-12T17:43:35.036Z,0
2022-11-12T17:45:14.915Z,0
2022-11-12T17:46:54.587Z,0
2022-11-12T17:48:34.353Z,0
2022-11-12T17:50:14.110Z,0
2022-11-12T17:51:53.879Z,0
2022-11-12T17:53:33.645Z,0
2022-11-12T17:55:13.416Z,0
2022-11-12T17:56:53.169Z,0
2022-11-12T17:58:32.954Z,0
2022-11-12T18:00:12.717Z,0
2022-11-12T18:01:52.470Z,0
2022-11-12T18:03:32.267Z,0
2022-11-12T18:05:12.026Z,0
2022-11-12T18:06:51.785Z,0
2022-11-12T18:08:31.550Z,0
2022-11-12T18:10:11.310Z,0
2022-11-12T18:11:51.090Z,0
2022-11-12T18:13:30.881Z,0
2022-11-12T18:15:10.632Z,0
2022-11-12T18:16:50.384Z,0
2022-11-12T18:18:30.162Z,0
2022-11-12T18:20:09.918Z,0
2022-11-12T18:21:49.684Z,0
2022-11-12T18:23:29.523Z,0
2022-11-12T18:25:09.231Z,0
2022-11-12T18:26:48.989Z,0
2022-11-12T18:28:28.802Z,0
2022-11-12T18:30:08.525Z,0
2022-11-12T18:31:48.343Z,0
2022-11-12T18:33:28.061Z,0
2022-11-12T18:35:07.821Z,0
2022-11-12T18:36:47.598Z,0
2022-11-12T18:38:27.376Z,0
2022-11-12T18:40:07.201Z,0
2022-11-12T18:41:46.908Z,0
2022-11-12T18:43:26.661Z,0
2022-11-12T18:45:06.454Z,0
2022-11-12T18:46:46.201Z,0
2022-11-12T18:48:25.964Z,0
2022-11-12T18:50:05.731Z,0
2022-11-12T18:51:45.544Z,0
2022-11-12T18:53:25.271Z,0
2022-11-12T18:55:05.054Z,0
2022-11-12T18:56:44.795Z,0
2022-11-12T18:58:24.590Z,0
2022-11-12T19:00:04.358Z,0
2022-11-12T19:01:44.116Z,0
2022-11-12T19:03:23.875Z,0
2022-11-12T19:05:03.646Z,0
2022-11-12T19:06:43.403Z,0
2022-11-12T19:08:23.184Z,0
2022-11-12T19:10:02.981Z,0
2022-11-12T19:11:42.719Z,0
2022-11-12T19:13:22.477Z,0
2022-11-12T19:15:02.254Z,0
2022-11-12T19:16:42.018Z,0
2022-11-12T19:18:21.778Z,0
2022-11-12T19:20:01.595Z,0
2022-11-12T19:21:41.315Z,0
2022-11-12T19:23:21.079Z,0
2022-11-12T19:25:00.843Z,0
2022-11-12T19:28:20.412Z,0
2022-11-12T19:30:00.153Z,0
2022-11-12T19:31:39.947Z,0
2022-11-12T19:33:19.692Z,0
2022-11-12T19:34:59.469Z,0
2022-11-12T19:36:39.223Z,0
2022-11-12T19:38:18.990Z,0
2022-11-12T19:39:58.745Z,0
2022-11-12T19:41:38.529Z,0
2022-11-12T19:43:18.334Z,0
2022-11-12T19:44:58.059Z,0
2022-11-12T19:46:37.821Z,0
2022-11-12T19:48:17.597Z,0
2022-11-12T19:49:57.357Z,0
2022-11-12T19:51:37.121Z,0
2022-11-12T19:53:16.920Z,0
2022-11-12T19:54:56.662Z,0
2022-11-12T19:56:36.450Z,0
2022-11-12T19:58:16.246Z,0
2022-11-12T19:59:55.961Z,0
2022-11-12T20:01:35.798Z,0
2022-11-12T20:03:15.508Z,0
2022-11-12T20:04:55.266Z,0
2022-11-12T20:06:35.116Z,0
2022-11-12T20:08:14.814Z,0
2022-11-12T20:09:54.603Z,0
2022-11-12T20:13:14.123Z,0
2022-11-12T20:14:53.906Z,0
2022-11-12T20:16:33.716Z,0
2022-11-12T20:18:13.421Z,0
2022-11-12T20:19:53.169Z,0
2022-11-12T20:21:32.934Z,0
2022-11-12T20:23:12.709Z,0
2022-11-12T20:24:52.500Z,0
2022-11-12T20:26:32.391Z,0
2022-11-12T20:28:12.064Z,0
2022-11-12T20:29:51.773Z,0
2022-11-12T20:31:31.543Z,0
2022-11-12T20:33:11.371Z,0
2022-11-12T20:34:51.088Z,0
2022-11-12T20:36:30.940Z,0
2022-11-12T20:38:10.614Z,0
2022-11-12T20:39:50.372Z,0
2022-11-12T20:41:30.150Z,0
2022-11-12T20:43:10.019Z,0
2022-11-12T20:44:49.675Z,0
2022-11-12T20:46:29.441Z,0
2022-11-12T20:48:09.217Z,0
2022-11-12T20:49:49.004Z,0
2022-11-12T20:51:28.852Z,0
2022-11-12T20:53:08.592Z,0
2022-11-12T20:54:48.406Z,0
2022-11-12T20:56:28.102Z,0
2022-11-12T20:58:07.853Z,0
2022-11-12T20:59:47.594Z,0
2022-11-12T21:01:27.365Z,0
2022-11-12T21:03:07.128Z,0
2022-11-12T21:04:46.887Z,0
2022-11-12T21:06:26.760Z,0
2022-11-12T21:08:06.598Z,0
2022-11-12T21:09:46.206Z,0
2022-11-12T21:11:26.014Z,0
2022-11-12T21:13:05.799Z,0
2022-11-12T21:14:45.500Z,0
2022-11-12T21:16:25.275Z,0
2022-11-12T21:18:05.045Z,0
2022-11-12T21:19:44.789Z,0
2022-11-12T21:21:24.629Z,0
2022-11-12T21:23:04.470Z,0
2022-11-12T21:24:44.121Z,0
2022-11-12T21:26:23.959Z,0
2022-11-12T21:28:03.730Z,0
2022-11-12T21:29:43.493Z,0
2022-11-12T21:31:23.170Z,0
2022-11-12T21:33:03.035Z,0
2022-11-12T21:34:42.696Z,0
2022-11-12T21:36:22.494Z,0
2022-11-12T21:38:02.230Z,0
2022-11-12T21:39:42.012Z,0
2022-11-12T21:41:21.803Z,0
2022-11-12T21:43:01.540Z,0
2022-11-12T21:44:41.306Z,0
2022-11-12T21:46:21.128Z,0
2022-11-12T21:48:00.831Z,0
2022-11-12T21:49:40.704Z,0
2022-11-12T21:54:39.909Z,0
2022-11-12T21:56:19.667Z,0
2022-11-12T21:57:59.520Z,0
2022-11-12T21:59:39.220Z,0
2022-11-12T22:01:19.033Z,0
2022-11-12T22:02:58.740Z,0
2022-11-12T22:04:38.675Z,0
2022-11-12T22:06:18.359Z,0
2022-11-12T22:07:58.163Z,0
2022-11-12T22:09:37.983Z,0
2022-11-12T22:11:17.688Z,0
2022-11-12T22:12:57.391Z,0
2022-11-12T22:14:37.132Z,0
2022-11-12T22:16:16.937Z,0
2022-11-12T22:17:56.671Z,0
2022-11-12T22:19:36.462Z,0
2022-11-12T22:21:16.203Z,0
2022-11-12T22:22:55.953Z,0
2022-11-12T22:24:35.749Z,0
2022-11-12T22:26:15.567Z,0
2022-11-12T22:27:55.265Z,0
2022-11-12T22:29:35.037Z,0
2022-11-12T22:31:14.794Z,0
2022-11-12T22:32:54.677Z,0
2022-11-12T22:34:34.325Z,0
2022-11-12T22:36:14.106Z,0
2022-11-12T22:37:53.971Z,0
2022-11-12T22:39:33.672Z,0
2022-11-12T22:41:13.394Z,0
2022-11-12T22:42:53.311Z,0
2022-11-12T22:44:32.929Z,0
2022-11-12T22:46:12.711Z,0
2022-11-12T22:47:52.553Z,0
2022-11-12T22:49:32.302Z,0
2022-11-12T22:51:12.002Z,0
2022-11-12T22:52:51.793Z,0
2022-11-12T22:54:31.540Z,0
2022-11-12T22:56:11.316Z,0
2022-11-12T22:57:51.114Z,0
2022-11-12T22:59:30.834Z,0
2022-11-12T23:01:10.606Z,0
2022-11-12T23:02:50.393Z,0
2022-11-12T23:04:30.142Z,0
2022-11-12T23:06:09.902Z,0
2022-11-12T23:07:49.659Z,0
2022-11-12T23:09:29.440Z,0
2022-11-12T23:11:09.190Z,0
2022-11-12T23:12:48.976Z,0
2022-11-12T23:14:28.733Z,0
2022-11-12T23:16:08.540Z,0
2022-11-12T23:17:48.284Z,0
2022-11-12T23:19:28.051Z,0
2022-11-12T23:21:07.817Z,0
2022-11-12T23:22:47.576Z,0
2022-11-12T23:24:27.336Z,0
2022-11-12T23:26:07.103Z,0
2022-11-12T23:27:46.905Z,0
2022-11-12T23:29:26.653Z,0
2022-11-12T23:31:06.414Z,0
2022-11-12T23:32:46.180Z,0
2022-11-12T23:34:25.954Z,0
2022-11-12T23:36:05.725Z,0
2022-11-12T23:37:45.548Z,0
2022-11-12T23:39:25.249Z,0
2022-11-12T23:41:05.025Z,0
2022-11-12T23:42:44.787Z,0
2022-11-12T23:44:24.598Z,0
2022-11-12T23:46:04.330Z,0
2022-11-12T23:47:44.196Z,0
2022-11-12T23:49:23.879Z,0
2022-11-12T23:51:03.611Z,0
2022-11-12T23:52:43.410Z,0
2022-11-12T23:54:23.154Z,0
2022-11-12T23:56:02.945Z,0
2022-11-12T23:57:42.697Z,0
2022-11-12T23:59:22.464Z,0
